Time;durP1;ratioP1;P1;durP2;ratioP2;P2;SDS_P1;SDS_P2;PMS_P1;PMS_P2;Temp;Humidity;BMP_temperature;BMP_pressure;BME280_temperature;BME280_humidity;BME280_pressure;Samples;Min_cycle;Max_cycle;Signal;HPM_P1;HPM_P2
2022/03/08 00:00:56;;;;;;;56.77;26.05;;;;;;;-2.48;81.69;99189.12;1727603;81;20912;-71
2022/03/08 00:03:24;;;;;;;62.95;26.48;;;;;;;-2.52;81.76;99190.12;1720405;81;21434;-72
2022/03/08 00:05:51;;;;;;;59.73;27.15;;;;;;;-2.55;81.82;99186.57;1736990;81;20951;-71
2022/03/08 00:08:21;;;;;;;55.50;25.52;;;;;;;-2.59;81.94;99186.75;1735696;81;21450;-71
2022/03/08 00:11:05;;;;;;;55.03;26.60;;;;;;;-2.63;82.09;99185.09;1745844;81;21485;-70
2022/03/08 00:13:34;;;;;;;53.70;27.07;;;;;;;-2.64;81.97;99186.66;1727718;81;21072;-72
2022/03/08 00:16:07;;;;;;;54.30;25.62;;;;;;;-2.68;81.79;99186.34;1720785;81;21024;-71
2022/03/08 00:18:38;;;;;;;54.73;25.12;;;;;;;-2.73;81.75;99176.80;1735400;81;21067;-70
2022/03/08 00:21:09;;;;;;;51.77;26.05;;;;;;;-2.82;81.44;99179.05;1721111;81;22603;-71
2022/03/08 00:23:37;;;;;;;51.45;25.52;;;;;;;-2.89;81.36;99175.14;1680595;84;21044;-71
2022/03/08 00:26:09;;;;;;;50.55;23.52;;;;;;;-2.94;81.45;99183.13;1685263;84;21105;-71
2022/03/08 00:28:36;;;;;;;46.33;24.07;;;;;;;-2.96;81.55;99181.19;1679182;83;21000;-71
2022/03/08 00:31:05;;;;;;;53.63;24.15;;;;;;;-2.99;81.51;99185.72;1670351;84;21141;-71
2022/03/08 00:33:34;;;;;;;52.53;22.70;;;;;;;-3.00;81.57;99185.44;1706616;81;21169;-72
2022/03/08 00:36:03;;;;;;;49.70;23.22;;;;;;;-3.02;81.56;99185.65;1696030;81;21072;-71
2022/03/08 00:38:30;;;;;;;54.35;23.45;;;;;;;-3.04;81.53;99185.09;1714793;81;21256;-70
2022/03/08 00:40:58;;;;;;;44.25;21.33;;;;;;;-3.06;81.60;99179.11;1693360;82;21024;-71
2022/03/08 00:43:25;;;;;;;51.35;22.52;;;;;;;-3.07;81.60;99177.48;1730642;81;21426;-70
2022/03/08 00:45:59;;;;;;;47.48;21.30;;;;;;;-3.09;81.53;99166.11;1731340;81;21327;-71
2022/03/08 00:48:28;;;;;;;42.10;21.12;;;;;;;-3.13;81.65;99163.06;1740734;81;20997;-70
2022/03/08 00:50:55;;;;;;;39.60;20.23;;;;;;;-3.15;81.71;99167.05;1662717;84;21214;-72
2022/03/08 00:53:22;;;;;;;45.92;21.42;;;;;;;-3.21;81.70;99168.28;1741159;81;21185;-71
2022/03/08 00:55:55;;;;;;;50.65;21.87;;;;;;;-3.23;82.02;99161.50;1738643;81;21043;-70
2022/03/08 00:58:24;;;;;;;45.03;21.00;;;;;;;-3.20;82.29;99167.24;1722655;81;21117;-71
2022/03/08 01:00:54;;;;;;;45.10;21.40;;;;;;;-3.15;82.36;99171.09;1696362;81;20949;-70
2022/03/08 01:03:21;;;;;;;49.88;19.62;;;;;;;-3.11;82.41;99170.39;1742787;81;21078;-71
2022/03/08 01:05:50;;;;;;;47.78;19.48;;;;;;;-3.04;82.49;99174.83;1739952;81;20902;-71
2022/03/08 01:08:19;;;;;;;50.50;21.27;;;;;;;-3.01;82.50;99173.83;1725183;81;21073;-72
2022/03/08 01:10:48;;;;;;;49.42;22.45;;;;;;;-2.97;82.53;99176.87;1727202;81;21246;-70
2022/03/08 01:13:16;;;;;;;44.40;20.72;;;;;;;-2.94;82.60;99169.64;1698335;81;21533;-69
2022/03/08 01:15:43;;;;;;;42.20;19.82;;;;;;;-2.91;82.72;99165.63;1731728;80;21114;-70
2022/03/08 01:18:12;;;;;;;42.53;20.45;;;;;;;-2.88;82.85;99169.23;1717989;81;20922;-70
2022/03/08 01:20:40;;;;;;;53.42;21.00;;;;;;;-2.85;82.97;99166.05;1721509;81;21024;-69
2022/03/08 01:23:10;;;;;;;43.00;21.73;;;;;;;-2.82;83.04;99162.86;1725506;81;21164;-70
2022/03/08 01:25:40;;;;;;;48.40;21.97;;;;;;;-2.77;83.06;99162.97;1717687;81;21438;-71
2022/03/08 01:28:09;;;;;;;47.98;21.25;;;;;;;-2.73;83.10;99153.31;1718472;81;21020;-72
2022/03/08 01:30:37;;;;;;;41.48;21.50;;;;;;;-2.70;83.07;99156.91;1723045;81;21048;-72
2022/03/08 01:33:06;;;;;;;51.63;23.22;;;;;;;-2.67;83.13;99150.72;1719961;81;21131;-71
2022/03/08 01:35:35;;;;;;;44.83;21.25;;;;;;;-2.66;83.24;99145.08;1711103;81;21057;-69
2022/03/08 01:38:06;;;;;;;47.30;21.02;;;;;;;-2.62;83.46;99146.77;1734846;80;20854;-72
2022/03/08 01:40:35;;;;;;;49.77;24.05;;;;;;;-2.59;83.53;99144.92;1728382;81;21043;-71
2022/03/08 01:43:04;;;;;;;48.20;22.25;;;;;;;-2.57;83.68;99146.86;1725609;81;21431;-71
2022/03/08 01:45:34;;;;;;;45.30;21.15;;;;;;;-2.57;83.83;99146.86;1714094;81;21008;-69
2022/03/08 01:48:04;;;;;;;48.52;24.02;;;;;;;-2.56;83.99;99148.52;1716371;81;21201;-70
2022/03/08 01:50:31;;;;;;;53.08;23.77;;;;;;;-2.54;84.15;99148.27;1712625;81;20961;-70
2022/03/08 01:53:00;;;;;;;49.70;23.70;;;;;;;-2.53;84.42;99148.55;1731970;80;21013;-71
2022/03/08 01:55:29;;;;;;;53.28;24.10;;;;;;;-2.53;84.58;99142.63;1734632;80;21000;-69
2022/03/08 01:57:56;;;;;;;53.28;22.67;;;;;;;-2.51;84.82;99141.86;1748604;80;20991;-71
2022/03/08 02:00:27;;;;;;;54.77;26.73;;;;;;;-2.47;84.88;99148.39;1729378;80;21103;-71
2022/03/08 02:02:57;;;;;;;61.28;25.57;;;;;;;-2.45;84.93;99147.63;1761989;80;20963;-70
2022/03/08 02:05:26;;;;;;;60.45;27.95;;;;;;;-2.43;84.97;99147.91;1761105;80;20970;-70
2022/03/08 02:07:55;;;;;;;57.40;26.75;;;;;;;-2.39;85.04;99150.42;1743984;80;21059;-70
2022/03/08 02:10:23;;;;;;;54.95;24.67;;;;;;;-2.40;85.10;99148.77;1762286;80;21443;-71
2022/03/08 02:12:54;;;;;;;54.25;26.55;;;;;;;-2.45;85.17;99147.63;1767663;80;21544;-70
2022/03/08 02:15:26;;;;;;;55.80;25.43;;;;;;;-2.48;85.32;99149.47;1742292;80;20997;-71
2022/03/08 02:17:58;;;;;;;52.55;24.45;;;;;;;-2.46;85.50;99149.23;1719065;80;20976;-71
2022/03/08 02:20:26;;;;;;;56.27;24.50;;;;;;;-2.45;85.56;99146.28;1781644;79;21021;-72
2022/03/08 02:22:57;;;;;;;49.13;23.90;;;;;;;-2.41;85.69;99142.57;1770152;80;20976;-71
2022/03/08 02:25:24;;;;;;;47.40;23.42;;;;;;;-2.37;85.71;99146.41;1759729;80;21762;-70
2022/03/08 02:27:55;;;;;;;53.87;24.25;;;;;;;-2.36;85.75;99151.28;1758795;80;21470;-70
2022/03/08 02:30:23;;;;;;;58.95;26.42;;;;;;;-2.34;86.01;99141.86;1762155;80;20890;-70
2022/03/08 02:32:52;;;;;;;48.65;24.27;;;;;;;-2.28;86.28;99148.17;1774988;79;20974;-71
2022/03/08 02:35:29;;;;;;;44.83;21.75;;;;;;;-2.25;86.39;99153.08;1757729;80;20948;-70
2022/03/08 02:38:02;;;;;;;30.35;15.20;;;;;;;-2.22;86.65;99154.49;1757474;80;21625;-71
2022/03/08 02:40:33;;;;;;;25.72;12.75;;;;;;;-2.22;87.33;99151.24;1744719;80;20996;-71
2022/03/08 02:43:02;;;;;;;21.93;11.45;;;;;;;-2.22;88.79;99153.14;1763151;80;21494;-70
2022/03/08 02:45:30;;;;;;;25.20;11.88;;;;;;;-2.24;90.33;99160.14;1755432;80;21051;-70
2022/03/08 02:47:58;;;;;;;22.55;12.98;;;;;;;-2.26;91.24;99151.46;1762969;80;21082;-69
2022/03/08 02:50:26;;;;;;;29.02;13.58;;;;;;;-2.28;91.93;99141.43;1754871;80;21533;-70
2022/03/08 02:52:57;;;;;;;22.60;13.28;;;;;;;-2.28;92.38;99144.65;1753297;80;20928;-70
2022/03/08 02:55:27;;;;;;;35.45;14.28;;;;;;;-2.27;92.83;99151.16;1742318;80;20968;-69
2022/03/08 02:58:08;;;;;;;26.00;14.33;;;;;;;-2.23;93.10;99148.78;1741170;80;21065;-69
2022/03/08 03:00:37;;;;;;;23.83;13.98;;;;;;;-2.19;93.32;99151.30;1735296;80;21141;-71
2022/03/08 03:03:07;;;;;;;25.45;13.85;;;;;;;-2.12;93.45;99152.49;1742418;80;21553;-71
2022/03/08 03:05:34;;;;;;;34.63;15.25;;;;;;;-2.04;93.75;99155.30;1747811;80;20942;-71
2022/03/08 03:08:04;;;;;;;32.35;16.85;;;;;;;-2.00;93.72;99145.14;1759690;79;20888;-70
2022/03/08 03:10:32;;;;;;;36.50;15.58;;;;;;;-1.96;93.70;99140.86;1771206;80;20984;-70
2022/03/08 03:13:00;;;;;;;25.52;13.68;;;;;;;-1.90;93.75;99147.70;1758263;79;21007;-69
2022/03/08 03:15:30;;;;;;;36.10;16.10;;;;;;;-1.86;93.67;99142.90;1749192;80;21522;-70
2022/03/08 03:17:58;;;;;;;27.73;15.88;;;;;;;-1.81;93.66;99145.41;1759355;80;21425;-69
2022/03/08 03:20:26;;;;;;;37.03;19.77;;;;;;;-1.78;93.50;99147.61;1753806;79;21110;-69
2022/03/08 03:22:55;;;;;;;36.15;18.95;;;;;;;-1.79;93.19;99145.44;1772214;79;20963;-71
2022/03/08 03:25:25;;;;;;;36.05;19.95;;;;;;;-1.80;92.90;99151.09;1756914;80;20853;-71
2022/03/08 03:27:53;;;;;;;39.90;20.02;;;;;;;-1.84;92.73;99144.83;1760882;80;21282;-72
2022/03/08 03:30:22;;;;;;;32.85;17.45;;;;;;;-1.84;92.67;99149.41;1762772;80;21024;-70
2022/03/08 03:32:49;;;;;;;36.00;19.27;;;;;;;-1.83;92.75;99151.06;1749292;80;21003;-72
2022/03/08 03:35:16;;;;;;;32.08;17.87;;;;;;;-1.78;92.86;99144.38;1755614;80;21464;-72
2022/03/08 03:37:43;;;;;;;36.42;20.25;;;;;;;-1.73;92.87;99140.94;1753368;80;21016;-69
2022/03/08 03:40:13;;;;;;;36.45;19.12;;;;;;;-1.69;92.82;99148.84;1736024;80;20942;-69
2022/03/08 03:42:40;;;;;;;41.68;22.20;;;;;;;-1.74;92.37;99152.27;1755431;79;20973;-72
2022/03/08 03:45:11;;;;;;;39.67;22.60;;;;;;;-1.77;92.54;99151.41;1755400;80;21060;-72
2022/03/08 03:47:38;;;;;;;41.90;20.62;;;;;;;-1.73;92.91;99152.56;1748318;80;21041;-71
2022/03/08 03:50:05;;;;;;;40.38;18.95;;;;;;;-1.66;92.99;99148.87;1731638;80;20925;-71
2022/03/08 03:52:36;;;;;;;42.33;20.57;;;;;;;-1.66;92.90;99147.52;1748639;80;21151;-70
2022/03/08 03:55:05;;;;;;;34.95;18.98;;;;;;;-1.68;92.55;99152.34;1747762;80;20960;-72
2022/03/08 03:57:32;;;;;;;43.13;20.08;;;;;;;-1.75;92.36;99146.59;1742113;80;20956;-70
2022/03/08 04:00:00;;;;;;;33.23;16.90;;;;;;;-1.79;92.17;99151.39;1742283;80;20996;-71
2022/03/08 04:02:27;;;;;;;32.88;17.05;;;;;;;-1.85;92.11;99154.53;1752629;80;21003;-71
2022/03/08 04:04:55;;;;;;;33.73;16.80;;;;;;;-1.94;92.24;99147.92;1780523;79;21060;-70
2022/03/08 04:07:22;;;;;;;34.38;17.82;;;;;;;-2.00;92.51;99154.59;1755071;80;21088;-71
2022/03/08 04:09:50;;;;;;;34.50;16.02;;;;;;;-2.03;92.91;99147.51;1769392;80;20938;-69
2022/03/08 04:12:20;;;;;;;38.78;17.92;;;;;;;-2.04;93.12;99145.85;1762911;79;21056;-69
2022/03/08 04:14:50;;;;;;;33.92;16.97;;;;;;;-2.03;93.31;99147.51;1756128;80;20995;-71
2022/03/08 04:17:17;;;;;;;35.08;16.45;;;;;;;-2.01;93.58;99151.59;1767345;79;21109;-70
2022/03/08 04:19:49;;;;;;;37.55;16.10;;;;;;;-2.00;93.71;99149.19;1742247;80;21599;-71
2022/03/08 04:22:18;;;;;;;30.25;15.05;;;;;;;-1.99;93.90;99152.69;1760493;80;21060;-70
2022/03/08 04:24:48;;;;;;;25.62;14.35;;;;;;;-2.00;93.97;99153.77;1753651;80;21028;-70
2022/03/08 04:27:19;;;;;;;25.17;14.93;;;;;;;-2.02;94.05;99158.06;1747794;80;20971;-69
2022/03/08 04:29:46;;;;;;;27.58;14.28;;;;;;;-2.03;94.07;99152.36;1747999;80;21460;-71
2022/03/08 04:32:15;;;;;;;23.80;12.60;;;;;;;-2.04;94.09;99150.73;1742161;80;21457;-69
2022/03/08 04:34:43;;;;;;;23.62;12.25;;;;;;;-2.03;94.10;99151.55;1747825;80;20853;-70
2022/03/08 04:37:10;;;;;;;22.48;11.88;;;;;;;-2.04;93.96;99149.91;1760974;80;21294;-71
2022/03/08 04:39:39;;;;;;;26.12;12.07;;;;;;;-2.05;93.92;99150.98;1763105;80;21521;-70
2022/03/08 04:42:06;;;;;;;27.10;10.98;;;;;;;-2.07;93.76;99149.88;1742824;80;21087;-69
2022/03/08 04:44:36;;;;;;;21.68;10.40;;;;;;;-2.12;93.65;99156.54;1743827;80;21600;-71
2022/03/08 04:47:06;;;;;;;21.90;11.55;;;;;;;-2.14;93.67;99155.95;1761938;80;21009;-70
2022/03/08 04:49:33;;;;;;;21.20;11.10;;;;;;;-2.15;93.50;99158.39;1765444;80;20897;-69
2022/03/08 04:52:01;;;;;;;21.77;11.25;;;;;;;-2.19;93.34;99155.35;1759435;80;21418;-71
2022/03/08 04:54:31;;;;;;;21.82;9.88;;;;;;;-2.23;93.25;99164.47;1766064;80;21032;-69
2022/03/08 04:57:02;;;;;;;26.05;11.08;;;;;;;-2.22;93.41;99166.64;1787270;80;21005;-70
2022/03/08 04:59:30;;;;;;;25.02;11.50;;;;;;;-2.23;93.44;99167.16;1761259;80;20949;-68
2022/03/08 05:02:00;;;;;;;22.37;10.50;;;;;;;-2.22;93.68;99171.48;1755316;80;20980;-70
2022/03/08 05:04:27;;;;;;;25.27;11.00;;;;;;;-2.20;93.69;99169.89;1758955;80;20931;-70
2022/03/08 05:06:57;;;;;;;20.40;11.10;;;;;;;-2.19;93.73;99168.84;1776473;79;21048;-70
2022/03/08 05:09:25;;;;;;;28.12;11.33;;;;;;;-2.14;93.91;99169.46;1762953;80;21103;-71
2022/03/08 05:11:52;;;;;;;22.60;11.33;;;;;;;-2.06;94.03;99170.41;1742148;80;21075;-69
2022/03/08 05:14:23;;;;;;;26.55;12.20;;;;;;;-1.98;94.10;99169.20;1694275;84;20993;-70
2022/03/08 05:16:51;;;;;;;25.90;11.40;;;;;;;-1.94;94.06;99170.87;1755104;80;21013;-70
2022/03/08 05:19:19;;;;;;;25.08;11.65;;;;;;;-1.94;94.19;99172.23;1770657;80;21474;-69
2022/03/08 05:21:48;;;;;;;25.48;11.53;;;;;;;-1.93;94.37;99176.55;1762264;80;21072;-70
2022/03/08 05:24:17;;;;;;;16.62;7.95;;;;;;;-1.87;94.60;99185.84;1756835;80;21049;-70
2022/03/08 05:26:43;;;;;;;12.63;7.08;;;;;;;-1.82;94.55;99182.92;1759147;80;21426;-69
2022/03/08 05:29:11;;;;;;;12.50;6.42;;;;;;;-1.80;94.45;99181.62;1771999;79;21080;-71
2022/03/08 05:31:39;;;;;;;14.00;6.22;;;;;;;-1.76;94.46;99184.14;1769149;80;21273;-71
2022/03/08 05:34:07;;;;;;;10.25;5.83;;;;;;;-1.73;94.29;99181.46;1761503;80;21094;-69
2022/03/08 05:36:35;;;;;;;12.80;7.10;;;;;;;-1.69;94.23;99175.86;1767006;80;21447;-70
2022/03/08 05:39:02;;;;;;;11.00;6.67;;;;;;;-1.69;93.93;99179.09;1764444;80;21458;-69
2022/03/08 05:41:30;;;;;;;13.75;6.65;;;;;;;-1.67;93.88;99177.77;1773122;80;21004;-70
2022/03/08 05:43:58;;;;;;;12.33;6.12;;;;;;;-1.65;93.76;99174.81;1748645;80;21319;-69
2022/03/08 05:46:26;;;;;;;10.03;5.28;;;;;;;-1.63;93.67;99174.03;1762705;80;21051;-70
2022/03/08 05:48:53;;;;;;;8.95;4.97;;;;;;;-1.62;93.34;99186.50;1761991;80;21048;-69
2022/03/08 05:51:21;;;;;;;11.68;6.33;;;;;;;-1.62;93.49;99190.55;1725162;80;21125;-70
2022/03/08 05:53:51;;;;;;;17.55;6.97;;;;;;;-1.53;93.72;99188.23;1735118;80;21064;-71
2022/03/08 05:56:18;;;;;;;14.78;7.87;;;;;;;-1.54;93.37;99193.36;1764189;80;21075;-69
2022/03/08 05:58:45;;;;;;;10.70;6.22;;;;;;;-1.55;95.28;99191.73;1737039;80;21111;-70
2022/03/08 06:01:12;;;;;;;14.83;7.22;;;;;;;-1.51;96.15;99189.63;1768777;80;20965;-70
2022/03/08 06:03:41;;;;;;;20.00;8.08;;;;;;;-1.46;96.10;99191.59;1765847;80;21449;-69
2022/03/08 06:06:09;;;;;;;19.37;9.83;;;;;;;-1.48;95.95;99184.25;1772081;80;21017;-71
2022/03/08 06:08:36;;;;;;;24.57;11.70;;;;;;;-1.48;95.59;99189.66;1771341;80;21880;-69
2022/03/08 06:11:04;;;;;;;37.53;14.73;;;;;;;-1.50;95.13;99187.20;1753435;80;20989;-71
2022/03/08 06:13:31;;;;;;;29.15;15.48;;;;;;;-1.50;94.86;99185.85;1778399;80;20958;-69
2022/03/08 06:15:59;;;;;;;32.10;15.55;;;;;;;-1.47;94.63;99183.20;1772546;80;21103;-70
2022/03/08 06:18:30;;;;;;;34.53;16.45;;;;;;;-1.42;94.61;99180.58;1760501;80;20941;-70
2022/03/08 06:21:00;;;;;;;28.10;16.02;;;;;;;-1.36;94.46;99184.15;1753599;80;22132;-69
2022/03/08 06:23:27;;;;;;;37.50;18.55;;;;;;;-1.34;94.34;99184.72;1757668;80;20959;-70
2022/03/08 06:25:55;;;;;;;34.88;18.17;;;;;;;-1.32;95.01;99194.77;1753758;80;21075;-70
2022/03/08 06:28:25;;;;;;;35.03;17.92;;;;;;;-1.33;95.98;99186.34;1763303;80;21562;-71
2022/03/08 06:30:52;;;;;;;45.23;20.40;;;;;;;-1.29;96.38;99194.26;1768978;80;20873;-69
2022/03/08 06:33:19;;;;;;;43.17;20.92;;;;;;;-1.31;96.51;99194.23;1765984;80;22394;-70
2022/03/08 06:35:46;;;;;;;47.05;21.10;;;;;;;-1.31;96.60;99197.74;1771334;80;20994;-70
2022/03/08 06:38:13;;;;;;;44.38;22.48;;;;;;;-1.25;96.70;99202.70;1766165;80;21554;-68
2022/03/08 06:40:40;;;;;;;46.33;21.17;;;;;;;-1.21;96.48;99200.31;1753945;80;22066;-71
2022/03/08 06:43:07;;;;;;;42.62;20.45;;;;;;;-1.16;96.24;99207.95;1754352;80;21127;-69
2022/03/08 06:45:35;;;;;;;35.38;19.42;;;;;;;-1.12;95.81;99200.98;1764770;80;21565;-70
2022/03/08 06:48:02;;;;;;;26.62;14.83;;;;;;;-1.12;95.53;99203.69;1778751;80;20997;-71
2022/03/08 06:50:30;;;;;;;29.45;15.05;;;;;;;-1.15;99.42;99210.13;1764908;80;20977;-70
2022/03/08 06:52:58;;;;;;;24.43;14.95;;;;;;;-1.32;100.00;99204.75;1772880;80;21462;-71
2022/03/08 06:55:26;;;;;;;31.30;14.93;;;;;;;-1.45;100.00;99212.69;1743592;80;21077;-71
2022/03/08 06:57:54;;;;;;;29.45;15.23;;;;;;;-1.58;100.00;99209.25;1761942;80;21138;-70
2022/03/08 07:00:23;;;;;;;32.30;15.18;;;;;;;-1.68;100.00;99214.48;1772222;80;21420;-71
2022/03/08 07:02:53;;;;;;;28.98;15.78;;;;;;;-1.74;100.00;99208.20;1766623;80;22468;-70
2022/03/08 07:05:20;;;;;;;37.80;15.70;;;;;;;-1.78;100.00;99205.17;1754550;80;21130;-68
2022/03/08 07:07:49;;;;;;;28.52;17.32;;;;;;;-1.78;100.00;99205.17;1757887;80;21512;-70
2022/03/08 07:10:16;;;;;;;26.60;15.48;;;;;;;-1.76;100.00;99210.33;1759685;80;21765;-69
2022/03/08 07:12:43;;;;;;;27.95;15.83;;;;;;;-1.74;100.00;99204.16;1757864;80;20886;-71
2022/03/08 07:15:12;;;;;;;29.12;13.62;;;;;;;-1.67;100.00;99201.28;1761954;80;21052;-71
2022/03/08 07:17:40;;;;;;;26.70;14.60;;;;;;;-1.58;100.00;99195.73;1771742;80;20994;-71
2022/03/08 07:20:09;;;;;;;25.90;11.38;;;;;;;-1.55;100.00;99199.29;1755380;80;21092;-69
2022/03/08 07:22:40;;;;;;;23.35;10.80;;;;;;;-1.56;100.00;99203.07;1746147;80;21167;-70
2022/03/08 07:25:08;;;;;;;27.60;10.98;;;;;;;-1.61;100.00;99195.71;1764478;80;21049;-70
2022/03/08 07:27:35;;;;;;;26.15;12.23;;;;;;;-1.68;100.00;99198.28;1756107;80;21477;-72
2022/03/08 07:30:06;;;;;;;31.27;10.93;;;;;;;-1.72;100.00;99202.00;1764867;80;21037;-70
2022/03/08 07:32:35;;;;;;;25.72;11.08;;;;;;;-1.72;100.00;99197.42;1745099;80;20979;-72
2022/03/08 07:35:06;;;;;;;26.25;11.73;;;;;;;-1.69;100.00;99201.53;1765276;80;21651;-70
2022/03/08 07:37:37;;;;;;;26.75;11.78;;;;;;;-1.67;100.00;99198.03;1759732;80;20966;-68
2022/03/08 07:40:06;;;;;;;24.40;11.88;;;;;;;-1.63;100.00;99194.30;1753211;80;20948;-71
2022/03/08 07:42:35;;;;;;;27.87;12.25;;;;;;;-1.57;100.00;99197.39;1760452;80;21085;-71
2022/03/08 07:45:07;;;;;;;21.90;8.73;;;;;;;-1.47;100.00;99202.92;1748674;80;21016;-70
2022/03/08 07:47:36;;;;;;;20.35;10.32;;;;;;;-1.37;100.00;99194.69;1763737;80;21514;-71
2022/03/08 07:50:06;;;;;;;20.70;10.32;;;;;;;-1.43;100.00;99197.05;1764732;80;20957;-70
2022/03/08 07:52:34;;;;;;;24.15;7.78;;;;;;;-1.44;100.00;99193.52;1751076;80;21509;-70
2022/03/08 07:55:04;;;;;;;16.77;5.60;;;;;;;-1.44;100.00;99189.45;1765882;80;20980;-70
2022/03/08 07:57:36;;;;;;;13.48;6.15;;;;;;;-1.47;100.00;99193.46;1770996;80;20991;-70
2022/03/08 08:00:06;;;;;;;13.32;4.30;;;;;;;-1.42;100.00;99190.03;1752397;80;21143;-70
2022/03/08 08:02:33;;;;;;;8.95;3.65;;;;;;;-1.36;100.00;99193.09;1745522;80;21840;-70
2022/03/08 08:05:05;;;;;;;10.48;4.00;;;;;;;-1.12;100.00;99197.45;1759197;80;21119;-71
2022/03/08 08:07:33;;;;;;;8.58;4.10;;;;;;;-1.00;100.00;99203.57;1763631;80;21004;-71
2022/03/08 08:10:03;;;;;;;4.45;3.05;;;;;;;-0.91;100.00;99205.31;1771343;80;21017;-69
2022/03/08 08:12:34;;;;;;;9.00;4.12;;;;;;;-0.88;100.00;99205.33;1768398;80;21204;-70
2022/03/08 08:15:02;;;;;;;5.75;2.98;;;;;;;-0.86;100.00;99204.55;1718696;80;21473;-70
2022/03/08 08:17:33;;;;;;;6.95;3.60;;;;;;;-0.83;100.00;99202.69;1761895;80;21057;-72
2022/03/08 08:20:04;;;;;;;4.62;2.92;;;;;;;-0.79;100.00;99194.36;1742048;81;20944;-70
2022/03/08 08:22:36;;;;;;;6.47;3.83;;;;;;;-0.70;100.00;99198.77;1716367;82;21490;-71
2022/03/08 08:25:02;;;;;;;5.85;3.30;;;;;;;-0.48;100.00;99195.25;1708716;83;21068;-72
2022/03/08 08:27:34;;;;;;;4.78;2.58;;;;;;;-0.14;100.00;99190.95;1736452;81;20985;-71
2022/03/08 08:30:02;;;;;;;4.40;2.58;;;;;;;0.10;100.00;99196.03;1706440;82;21000;-68
2022/03/08 08:32:33;;;;;;;5.45;2.75;;;;;;;0.15;100.00;99187.16;1710972;82;21501;-72
2022/03/08 08:35:00;;;;;;;4.62;2.85;;;;;;;0.34;100.00;99193.53;1771783;80;21049;-68
2022/03/08 08:37:29;;;;;;;5.55;2.70;;;;;;;0.41;100.00;99188.68;1744230;80;21721;-73
2022/03/08 08:40:00;;;;;;;4.42;2.87;;;;;;;0.40;100.00;99191.66;1744061;80;21449;-71
2022/03/08 08:42:27;;;;;;;4.45;2.90;;;;;;;0.42;100.00;99198.47;1749567;80;21485;-71
2022/03/08 08:45:01;;;;;;;3.58;2.25;;;;;;;0.41;100.00;99193.31;1762037;80;20985;-72
2022/03/08 08:47:28;;;;;;;5.22;1.77;;;;;;;0.40;100.00;99197.91;1763982;80;21004;-70
2022/03/08 08:49:59;;;;;;;2.52;1.60;;;;;;;0.15;100.00;99193.93;1771051;80;21643;-70
2022/03/08 08:52:33;;;;;;;3.02;1.80;;;;;;;0.02;100.00;99196.52;1739137;81;21541;-72
2022/03/08 08:55:01;;;;;;;8.88;1.55;;;;;;;-0.07;100.00;99195.36;1741967;81;20956;-73
2022/03/08 08:57:28;;;;;;;3.37;1.82;;;;;;;-0.11;100.00;99193.70;1767387;80;21136;-73
2022/03/08 08:59:57;;;;;;;3.55;1.98;;;;;;;-0.22;100.00;99190.06;1752555;80;21573;-73
2022/03/08 09:02:26;;;;;;;2.83;2.10;;;;;;;-0.26;100.00;99190.31;1751107;79;21252;-73
2022/03/08 09:04:55;;;;;;;5.72;2.55;;;;;;;-0.16;100.00;99194.48;1767726;80;21532;-72
2022/03/08 09:07:22;;;;;;;5.53;2.87;;;;;;;-0.10;100.00;99202.09;1744652;80;20912;-72
2022/03/08 09:09:51;;;;;;;5.60;2.98;;;;;;;-0.05;100.00;99203.50;1762525;80;20914;-72
2022/03/08 09:12:21;;;;;;;2.10;1.90;;;;;;;-0.08;100.00;99213.50;1770294;80;20960;-72
2022/03/08 09:14:51;;;;;;;2.08;1.27;;;;;;;-0.22;100.00;99208.23;1767380;79;20959;-73
2022/03/08 09:17:17;;;;;;;3.58;2.08;;;;;;;-0.32;100.00;99207.56;1752309;80;21016;-71
2022/03/08 09:19:44;;;;;;;4.20;2.00;;;;;;;-0.34;100.00;99213.80;1742292;80;20951;-72
2022/03/08 09:22:13;;;;;;;3.77;2.52;;;;;;;-0.38;100.00;99214.84;1741894;80;20929;-72
2022/03/08 09:24:43;;;;;;;4.58;2.35;;;;;;;-0.34;100.00;99215.95;1742438;80;21115;-73
2022/03/08 09:27:10;;;;;;;4.75;2.50;;;;;;;-0.34;100.00;99216.50;1762773;79;21217;-72
2022/03/08 09:29:37;;;;;;;4.78;2.60;;;;;;;-0.26;100.00;99210.06;1778061;79;21005;-74
2022/03/08 09:32:06;;;;;;;8.78;3.47;;;;;;;-0.13;100.00;99218.34;1744450;80;20980;-73
2022/03/08 09:34:34;;;;;;;5.47;3.00;;;;;;;-0.23;100.00;99211.47;1765949;80;21043;-71
2022/03/08 09:37:02;;;;;;;4.45;3.10;;;;;;;-0.20;100.00;99213.66;1758435;80;20954;-73
2022/03/08 09:39:31;;;;;;;7.03;3.72;;;;;;;-0.19;100.00;99218.02;1757061;80;21517;-72
2022/03/08 09:42:01;;;;;;;5.70;3.30;;;;;;;-0.22;100.00;99214.44;1748235;79;21097;-72
2022/03/08 09:44:32;;;;;;;5.35;2.83;;;;;;;-0.21;100.00;99211.20;1767333;80;21023;-72
2022/03/08 09:47:00;;;;;;;5.80;3.27;;;;;;;-0.21;100.00;99213.91;1752388;80;21465;-73
2022/03/08 09:49:28;;;;;;;5.65;2.85;;;;;;;-0.12;100.00;99212.39;1757215;80;21010;-71
2022/03/08 09:51:55;;;;;;;4.78;2.85;;;;;;;-0.06;100.00;99217.30;1771476;80;21465;-73
2022/03/08 09:54:26;;;;;;;5.03;3.02;;;;;;;-0.01;100.00;99210.05;1757964;80;20988;-71
2022/03/08 09:56:56;;;;;;;6.15;2.87;;;;;;;0.22;100.00;99210.77;1747870;80;21095;-74
2022/03/08 09:59:33;;;;;;;4.08;2.45;;;;;;;0.43;100.00;99209.58;1744614;80;20912;-68
2022/03/08 10:02:26;;;;;;;5.00;2.87;;;;;;;0.63;100.00;99219.48;1752088;80;21671;-69
2022/03/08 10:05:04;;;;;;;4.58;2.77;;;;;;;0.72;100.00;99216.54;1753276;80;21115;-73
2022/03/08 10:07:33;;;;;;;4.10;2.65;;;;;;;0.59;100.00;99211.05;1742228;80;21059;-73
2022/03/08 10:10:01;;;;;;;3.83;2.60;;;;;;;0.66;100.00;99207.58;1748198;80;20992;-70
2022/03/08 10:12:31;;;;;;;4.47;2.35;;;;;;;0.90;100.00;99203.10;1754304;80;21032;-70
2022/03/08 10:15:04;;;;;;;4.45;2.33;;;;;;;1.18;100.00;99215.14;1764397;80;20956;-71
2022/03/08 10:17:39;;;;;;;1.92;1.20;;;;;;;1.19;100.00;99210.84;1743793;80;21098;-71
2022/03/08 10:20:10;;;;;;;2.92;1.70;;;;;;;1.08;100.00;99213.21;1750308;79;20976;-71
2022/03/08 10:22:41;;;;;;;5.45;2.27;;;;;;;1.07;100.00;99203.45;1742330;80;20939;-71
2022/03/08 10:25:24;;;;;;;2.87;2.00;;;;;;;1.21;100.00;99205.94;1747218;79;20965;-69
2022/03/08 10:27:57;;;;;;;3.55;1.77;;;;;;;1.41;100.00;99200.33;1776976;80;21005;-74
2022/03/08 10:30:31;;;;;;;3.20;1.80;;;;;;;1.53;100.00;99205.52;1761174;80;21682;-74
2022/03/08 10:33:01;;;;;;;2.67;1.60;;;;;;;1.69;100.00;99187.34;1750950;80;22527;-73
2022/03/08 10:35:40;;;;;;;2.15;1.15;;;;;;;1.87;100.00;99185.20;1746635;80;21394;-74
2022/03/08 10:38:15;;;;;;;2.62;1.87;;;;;;;1.95;100.00;99191.99;1723943;80;21031;-74
2022/03/08 10:40:44;;;;;;;3.05;2.15;;;;;;;2.10;100.00;99192.55;1754813;80;21069;-73
2022/03/08 10:43:17;;;;;;;2.33;1.35;;;;;;;2.24;100.00;99179.77;1760777;80;21549;-73
2022/03/08 10:45:47;;;;;;;1.45;1.20;;;;;;;2.27;100.00;99181.39;1753888;80;20989;-74
2022/03/08 10:48:18;;;;;;;2.10;1.10;;;;;;;2.21;100.00;99189.83;1753064;80;21040;-74
2022/03/08 10:50:49;;;;;;;3.58;1.17;;;;;;;2.11;100.00;99183.32;1763972;80;21060;-73
2022/03/08 10:53:29;;;;;;;1.60;1.05;;;;;;;1.97;100.00;99187.64;1754276;80;21028;-69
2022/03/08 10:55:55;;;;;;;1.32;1.10;;;;;;;1.92;100.00;99181.67;1781905;79;21501;-70
2022/03/08 10:58:25;;;;;;;2.87;1.67;;;;;;;2.02;100.00;99183.57;1748984;80;21070;-73
2022/03/08 11:00:54;;;;;;;3.75;1.87;;;;;;;2.17;100.00;99187.66;1755885;80;21048;-74
2022/03/08 11:03:23;;;;;;;1.80;1.20;;;;;;;2.39;100.00;99189.84;1765940;80;21000;-73
2022/03/08 11:05:53;;;;;;;1.75;1.25;;;;;;;2.51;100.00;99192.24;1762689;79;20948;-73
2022/03/08 11:08:21;;;;;;;1.10;0.90;;;;;;;2.63;100.00;99190.06;1751225;80;21716;-72
2022/03/08 11:10:51;;;;;;;2.47;1.45;;;;;;;2.68;100.00;99190.05;1787364;80;20993;-72
2022/03/08 11:13:20;;;;;;;1.98;1.12;;;;;;;2.72;100.00;99194.94;1742796;80;21085;-72
2022/03/08 11:15:49;;;;;;;1.02;0.90;;;;;;;2.77;100.00;99199.83;1764328;80;20984;-73
2022/03/08 11:18:18;;;;;;;3.72;0.62;;;;;;;2.82;100.00;99199.00;1778124;80;20973;-69
2022/03/08 11:20:47;;;;;;;1.30;0.90;;;;;;;2.61;100.00;99201.75;1730337;80;21051;-75
2022/03/08 11:23:15;;;;;;;2.22;1.02;;;;;;;2.36;100.00;99199.34;1742162;80;20936;-73
2022/03/08 11:25:45;;;;;;;1.92;1.00;;;;;;;2.25;100.00;99203.16;1747894;80;20957;-74
2022/03/08 11:28:13;;;;;;;1.75;1.20;;;;;;;2.14;100.00;99204.52;1762948;80;20957;-73
2022/03/08 11:30:48;;;;;;;1.45;1.25;;;;;;;2.08;100.00;99207.51;1765909;80;21222;-70